Time;durP1;ratioP1;P1;durP2;ratioP2;P2;SDS_P1;SDS_P2;PMS_P1;PMS_P2;Temp;Humidity;BMP_temperature;BMP_pressure;BME280_temperature;BME280_humidity;BME280_pressure;Samples;Min_cycle;Max_cycle;Signal;HPM_P1;HPM_P2
2023/12/30 00:03:33;;;;;;;12.77;2.22;;;;;;;17.53;56.32;96725.44;10390395;28;20025;-30
2023/12/30 00:08:33;;;;;;;5.27;1.50;;;;;;;17.55;55.66;96721.22;10397053;28;20041;-29
2023/12/30 00:13:33;;;;;;;8.30;1.47;;;;;;;17.58;55.72;96718.69;10403219;28;20083;-29
2023/12/30 00:18:35;;;;;;;2.73;1.00;;;;;;;17.60;55.50;96717.03;10399026;28;20052;-29
2023/12/30 00:23:37;;;;;;;6.03;1.10;;;;;;;17.59;55.31;96714.47;10406719;28;20037;-31
2023/12/30 00:28:37;;;;;;;3.72;1.40;;;;;;;17.60;55.56;96713.63;10419951;28;20071;-31
2023/12/30 00:33:38;;;;;;;2.00;1.07;;;;;;;17.58;55.46;96720.38;10414191;28;20037;-30
2023/12/30 00:38:38;;;;;;;3.77;1.50;;;;;;;17.59;55.07;96717.84;10415174;28;20029;-29
2023/12/30 00:43:43;;;;;;;2.97;1.20;;;;;;;17.58;55.41;96710.25;10422364;28;20104;-29
2023/12/30 00:48:46;;;;;;;4.93;0.95;;;;;;;17.61;54.90;96711.13;10417185;28;20025;-30
2023/12/30 00:53:48;;;;;;;2.78;1.27;;;;;;;17.58;54.99;96715.31;10418485;28;20052;-30
2023/12/30 00:58:49;;;;;;;2.75;1.00;;;;;;;17.55;54.81;96706.03;10416716;28;20576;-30
2023/12/30 01:03:49;;;;;;;1.20;0.85;;;;;;;17.61;55.16;96715.31;10421256;28;20074;-30
2023/12/30 01:08:49;;;;;;;1.13;0.70;;;;;;;17.59;55.15;96710.25;10418445;28;20036;-31
2023/12/30 01:13:50;;;;;;;2.07;0.80;;;;;;;17.63;55.13;96719.56;10411840;28;20034;-30
2023/12/30 01:18:50;;;;;;;3.37;1.27;;;;;;;17.62;54.90;96711.94;10418671;28;20353;-30
2023/12/30 01:23:50;;;;;;;4.47;1.20;;;;;;;17.63;54.81;96714.50;10405839;28;20582;-30
2023/12/30 01:28:51;;;;;;;2.03;0.80;;;;;;;17.61;55.79;96720.38;10421662;28;20415;-29
2023/12/30 01:33:51;;;;;;;1.93;0.93;;;;;;;17.57;55.70;96723.75;10413158;28;20440;-29
2023/12/30 01:38:52;;;;;;;2.17;0.73;;;;;;;17.59;55.80;96734.72;10408891;28;20349;-31
2023/12/30 01:43:52;;;;;;;1.90;0.80;;;;;;;17.59;56.00;96742.31;10413300;28;20025;-29
2023/12/30 01:48:53;;;;;;;2.13;0.80;;;;;;;17.54;56.11;96736.38;10408362;28;20025;-30
2023/12/30 01:53:56;;;;;;;2.10;1.00;;;;;;;17.56;56.17;96743.16;10405861;28;20038;-30
2023/12/30 01:58:57;;;;;;;1.95;0.90;;;;;;;17.53;56.22;96744.81;10411153;28;20436;-30
2023/12/30 02:03:57;;;;;;;1.83;0.98;;;;;;;17.57;55.69;96756.66;10408378;28;20049;-31
2023/12/30 02:08:58;;;;;;;3.28;0.70;;;;;;;17.56;56.57;96749.91;10420990;28;20033;-30
2023/12/30 02:13:58;;;;;;;1.23;0.50;;;;;;;17.57;56.29;96754.97;10416304;28;20087;-30
2023/12/30 02:18:59;;;;;;;2.83;0.83;;;;;;;17.58;56.25;96750.75;10409192;28;20033;-29
2023/12/30 02:23:59;;;;;;;0.93;0.60;;;;;;;17.58;56.00;96751.59;10405438;28;20056;-30
2023/12/30 02:29:00;;;;;;;2.75;0.52;;;;;;;17.61;55.55;96745.69;10409158;28;20778;-29
2023/12/30 02:34:00;;;;;;;1.47;0.60;;;;;;;17.60;56.20;96755.00;10405065;28;20102;-29
2023/12/30 02:39:01;;;;;;;1.73;0.80;;;;;;;17.61;56.13;96771.00;10404941;28;20037;-30
2023/12/30 02:44:02;;;;;;;2.37;0.93;;;;;;;17.58;56.28;96760.88;10408786;28;20033;-30
2023/12/30 02:49:04;;;;;;;4.80;1.25;;;;;;;17.55;56.17;96745.66;10405954;28;20033;-30
2023/12/30 02:54:05;;;;;;;2.97;0.82;;;;;;;17.60;56.13;96744.00;10404465;28;20037;-31
2023/12/30 02:59:05;;;;;;;0.87;0.50;;;;;;;17.56;56.67;96733.03;10407276;28;20053;-30
2023/12/30 03:04:06;;;;;;;1.50;0.90;;;;;;;17.57;56.44;96737.25;10409428;28;20689;-30
2023/12/30 03:09:06;;;;;;;1.25;0.70;;;;;;;17.55;56.74;96740.59;10410199;28;20287;-30
2023/12/30 03:14:06;;;;;;;2.20;0.80;;;;;;;17.48;56.67;96719.50;10414401;28;20110;-29
2023/12/30 03:19:07;;;;;;;2.13;0.90;;;;;;;17.56;56.42;96730.50;10404439;28;20644;-29
2023/12/30 03:24:08;;;;;;;2.55;0.80;;;;;;;17.59;56.28;96727.13;10396100;28;20061;-30
2023/12/30 03:29:08;;;;;;;0.87;0.67;;;;;;;17.61;55.87;96733.03;10411298;28;20104;-30
2023/12/30 03:34:09;;;;;;;2.33;0.97;;;;;;;17.61;55.81;96735.56;10401248;28;20032;-30
2023/12/30 03:39:10;;;;;;;1.23;0.97;;;;;;;17.58;56.28;96741.47;10400838;28;20034;-30
2023/12/30 03:44:10;;;;;;;1.10;0.70;;;;;;;17.58;56.35;96745.69;10403796;28;20033;-30
2023/12/30 03:49:10;;;;;;;1.33;0.80;;;;;;;17.57;56.26;96738.94;10402550;28;20539;-29
2023/12/30 03:54:11;;;;;;;2.53;1.10;;;;;;;17.59;55.99;96737.25;10399020;28;20492;-29
2023/12/30 03:59:11;;;;;;;1.87;0.50;;;;;;;17.60;56.20;96736.41;10399001;28;20342;-30
2023/12/30 04:04:12;;;;;;;1.65;0.80;;;;;;;17.58;56.27;96731.34;10402733;28;20040;-29
2023/12/30 04:09:12;;;;;;;0.97;0.77;;;;;;;17.61;55.81;96726.31;10407144;28;20025;-29
2023/12/30 04:14:12;;;;;;;1.17;0.60;;;;;;;17.58;56.15;96726.28;10410704;28;20029;-32
2023/12/30 04:19:15;;;;;;;1.57;0.60;;;;;;;17.58;56.38;96731.34;10385289;28;20299;-30
2023/12/30 04:24:17;;;;;;;1.95;0.70;;;;;;;17.58;56.61;96731.34;10398115;28;20419;-30
2023/12/30 04:29:18;;;;;;;2.95;0.50;;;;;;;17.62;55.64;96732.19;10402880;28;20032;-30
2023/12/30 04:34:18;;;;;;;0.70;0.57;;;;;;;17.58;56.55;96725.44;10400758;28;20022;-29
2023/12/30 04:39:19;;;;;;;0.50;0.40;;;;;;;17.58;56.78;96730.50;10403031;28;20651;-30
2023/12/30 04:44:19;;;;;;;1.15;0.60;;;;;;;17.58;56.54;96740.63;10409860;28;20294;-30
2023/12/30 04:49:19;;;;;;;2.03;1.03;;;;;;;17.59;56.70;96733.03;10399214;28;20125;-31
2023/12/30 04:54:20;;;;;;;0.77;0.50;;;;;;;17.62;55.93;96744.84;10396439;28;20283;-29
2023/12/30 04:59:20;;;;;;;1.73;0.70;;;;;;;17.62;56.04;96748.25;10405100;28;20418;-30
2023/12/30 05:04:21;;;;;;;1.40;0.57;;;;;;;17.60;56.22;96739.81;10392360;28;20044;-30
2023/12/30 05:09:21;;;;;;;0.82;0.50;;;;;;;17.62;55.84;96742.31;10403115;28;20109;-30
2023/12/30 05:14:22;;;;;;;0.80;0.53;;;;;;;17.60;56.16;96759.19;10412694;28;20411;-30
2023/12/30 05:19:22;;;;;;;0.50;0.40;;;;;;;17.56;56.27;96749.91;10406153;28;20079;-30
2023/12/30 05:24:23;;;;;;;1.50;0.50;;;;;;;17.56;56.42;96755.81;10411319;28;20048;-30
2023/12/30 05:29:23;;;;;;;1.23;0.70;;;;;;;17.60;56.49;96766.78;10410066;28;20032;-30
2023/12/30 05:34:23;;;;;;;0.57;0.45;;;;;;;17.58;56.41;96776.06;10405683;28;20044;-30
2023/12/30 05:39:24;;;;;;;1.10;0.70;;;;;;;17.60;56.25;96775.25;10413188;28;20033;-30
2023/12/30 05:44:24;;;;;;;1.90;1.33;;;;;;;17.57;56.43;96772.69;10408137;28;20060;-30
2023/12/30 05:49:24;;;;;;;1.43;0.70;;;;;;;17.60;56.06;96769.31;10407452;28;20033;-30
2023/12/30 05:54:28;;;;;;;0.70;0.50;;;;;;;17.57;56.60;96764.25;10407614;28;20041;-30
2023/12/30 05:59:28;;;;;;;0.77;0.50;;;;;;;17.57;56.73;96766.78;10415130;28;20394;-29
2023/12/30 06:04:29;;;;;;;1.70;0.57;;;;;;;17.56;56.72;96768.47;10409504;28;20039;-30
2023/12/30 06:09:29;;;;;;;0.98;0.45;;;;;;;17.55;56.73;96776.91;10405497;28;20025;-30
2023/12/30 06:14:31;;;;;;;0.98;0.50;;;;;;;17.58;56.54;96779.44;10408585;28;20203;-29
2023/12/30 06:19:34;;;;;;;0.53;0.33;;;;;;;17.59;56.27;96775.22;10406402;28;20140;-30
2023/12/30 06:24:35;;;;;;;1.05;0.82;;;;;;;17.61;56.36;96786.22;10402886;28;20039;-30
2023/12/30 06:29:35;;;;;;;1.80;0.60;;;;;;;17.62;56.04;96782.81;10401546;28;20030;-30
2023/12/30 06:34:35;;;;;;;1.27;0.40;;;;;;;17.61;56.36;96791.28;10404918;28;20045;-30
2023/12/30 06:39:36;;;;;;;1.00;0.50;;;;;;;17.63;55.99;96789.56;10399370;28;20388;-30
2023/12/30 06:44:36;;;;;;;3.83;0.70;;;;;;;17.67;56.22;96796.38;10416699;28;20553;-30
2023/12/30 06:49:39;;;;;;;1.90;0.60;;;;;;;17.67;56.08;96794.66;10405566;28;20041;-30
2023/12/30 06:54:40;;;;;;;1.63;0.65;;;;;;;17.66;56.32;96789.63;10407128;28;20295;-29
2023/12/30 06:59:41;;;;;;;0.50;0.50;;;;;;;17.67;56.11;96791.31;10408323;28;20036;-30
2023/12/30 07:04:41;;;;;;;0.82;0.52;;;;;;;17.70;56.11;96803.97;10404892;28;20494;-30
2023/12/30 07:09:41;;;;;;;1.93;0.40;;;;;;;17.66;55.84;96799.75;10408522;28;20035;-30
2023/12/30 07:14:42;;;;;;;3.00;0.70;;;;;;;17.70;55.81;96796.38;10403167;28;20314;-29
2023/12/30 07:19:42;;;;;;;1.40;0.60;;;;;;;17.70;55.86;96801.44;10405711;28;20057;-31
2023/12/30 07:24:43;;;;;;;0.63;0.40;;;;;;;17.69;56.05;96810.72;10398735;28;20036;-30
2023/12/30 07:29:43;;;;;;;1.20;0.53;;;;;;;17.70;56.26;96826.75;10406973;28;20032;-29
2023/12/30 07:34:43;;;;;;;0.93;0.60;;;;;;;17.63;56.27;96822.50;10408495;28;20041;-30
2023/12/30 07:39:44;;;;;;;1.10;0.70;;;;;;;17.68;56.24;96830.97;10403101;28;20289;-30
2023/12/30 07:44:44;;;;;;;0.90;0.50;;;;;;;17.66;56.36;96832.66;10407222;28;20033;-30
2023/12/30 07:49:49;;;;;;;0.77;0.30;;;;;;;17.69;55.74;96835.19;10402332;28;20029;-32
2023/12/30 07:54:49;;;;;;;0.70;0.47;;;;;;;17.60;55.49;96836.00;10401089;28;20030;-31
2023/12/30 07:59:50;;;;;;;1.13;0.60;;;;;;;17.66;55.78;96847.84;10401686;28;20037;-30
2023/12/30 08:04:50;;;;;;;0.88;0.40;;;;;;;17.67;55.88;96826.75;10388001;28;20300;-30
2023/12/30 08:09:51;;;;;;;1.88;0.50;;;;;;;17.67;56.06;96824.22;10398583;28;20648;-30
2023/12/30 08:14:51;;;;;;;1.20;0.70;;;;;;;17.72;56.21;96837.72;10405101;28;20522;-30
2023/12/30 08:19:52;;;;;;;5.88;0.80;;;;;;;17.66;57.08;96836.00;10398179;28;20488;-29
2023/12/30 08:24:53;;;;;;;3.87;0.90;;;;;;;17.76;56.36;96837.75;10395801;28;20124;-30
2023/12/30 08:29:54;;;;;;;1.17;0.75;;;;;;;17.75;56.39;96830.16;10403208;28;20079;-30
2023/12/30 08:34:56;;;;;;;5.85;2.10;;;;;;;17.75;56.12;96835.22;10398161;28;20033;-30
2023/12/30 08:39:57;;;;;;;8.13;1.15;;;;;;;17.74;56.48;96841.13;10397307;28;20083;-32
2023/12/30 08:44:58;;;;;;;2.63;1.00;;;;;;;17.59;56.26;96833.47;10401316;28;20087;-31
2023/12/30 08:50:01;;;;;;;16.42;1.77;;;;;;;17.66;56.20;96830.13;10411188;28;20034;-30
2023/12/30 08:55:01;;;;;;;5.47;1.48;;;;;;;17.75;56.24;96830.16;10409602;28;20102;-31
2023/12/30 09:00:08;;;;;;;5.13;2.00;;;;;;;17.67;55.54;96826.75;10409434;28;20094;-30
2023/12/30 09:05:09;;;;;;;4.00;1.63;;;;;;;17.50;55.76;96833.41;10406665;28;20292;-30
2023/12/30 09:10:09;;;;;;;7.77;1.37;;;;;;;17.43;55.67;96837.59;10409543;28;20033;-30
2023/12/30 09:15:10;;;;;;;9.80;1.75;;;;;;;17.46;56.47;96824.09;10406027;28;20071;-28
2023/12/30 09:20:10;;;;;;;9.70;2.13;;;;;;;17.49;55.85;96832.53;10408586;28;20416;-30
2023/12/30 09:25:10;;;;;;;19.92;3.28;;;;;;;17.48;55.85;96840.16;10404303;28;20045;-29
2023/12/30 09:30:11;;;;;;;8.60;4.33;;;;;;;17.55;56.48;96831.72;10410618;28;20037;-30
2023/12/30 09:35:12;;;;;;;10.25;2.70;;;;;;;17.60;56.79;96840.22;10400722;28;20283;-29
2023/12/30 09:40:12;;;;;;;4.75;1.70;;;;;;;17.67;55.82;96841.94;10402694;28;20025;-32
2023/12/30 09:45:14;;;;;;;4.05;1.75;;;;;;;17.69;56.69;96841.13;10408648;28;20041;-29
2023/12/30 09:50:14;;;;;;;6.03;1.70;;;;;;;17.67;56.72;96836.88;10405518;28;20109;-29
2023/12/30 09:55:15;;;;;;;6.40;1.95;;;;;;;17.70;56.73;96839.41;10399721;28;20063;-31
2023/12/30 10:00:17;;;;;;;3.07;1.77;;;;;;;17.65;56.55;96834.31;10405705;28;20049;-30
2023/12/30 10:05:17;;;;;;;5.22;1.40;;;;;;;17.69;56.44;96835.19;10403093;28;20300;-30
2023/12/30 10:10:44;;;;;;;8.93;1.90;;;;;;;17.64;56.85;96826.72;10403667;28;20041;-30
2023/12/30 10:15:44;;;;;;;6.10;1.40;;;;;;;17.71;56.51;96829.31;10408598;28;20408;-30
2023/12/30 10:20:46;;;;;;;3.47;1.77;;;;;;;17.72;57.61;96815.78;10403902;28;20029;-29
2023/12/30 10:25:46;;;;;;;10.73;1.42;;;;;;;17.72;58.21;96814.94;10399669;28;20367;-30
2023/12/30 10:30:47;;;;;;;5.72;1.90;;;;;;;17.71;57.15;96809.03;10405961;28;20091;-30
2023/12/30 10:35:47;;;;;;;15.60;5.00;;;;;;;17.70;58.57;96803.97;10406910;28;20029;-31
2023/12/30 10:40:49;;;;;;;14.63;5.80;;;;;;;17.67;57.32;96793.84;10398442;28;20403;-31
2023/12/30 10:45:57;;;;;;;24.63;8.07;;;;;;;18.01;48.73;96782.97;10405343;28;20057;-30
2023/12/30 10:50:59;;;;;;;20.85;6.97;;;;;;;17.88;52.57;96791.38;10403618;28;20033;-30
2023/12/30 10:56:01;;;;;;;20.85;5.82;;;;;;;17.75;54.29;96782.06;10401405;28;20033;-29
2023/12/30 11:01:05;;;;;;;11.43;4.57;;;;;;;17.67;53.14;96776.09;10405824;28;20044;-29
2023/12/30 11:06:23;;;;;;;8.90;3.38;;;;;;;17.58;52.01;96776.06;10396459;28;20080;-27
2023/12/30 11:11:23;;;;;;;8.27;2.90;;;;;;;17.52;51.67;96756.66;10399737;28;20127;-31
2023/12/30 11:16:23;;;;;;;9.20;2.87;;;;;;;17.58;52.39;96745.69;10405847;28;20041;-30
2023/12/30 11:21:35;;;;;;;7.55;2.38;;;;;;;17.61;52.95;96753.28;10405286;28;20408;-31
2023/12/30 11:26:41;;;;;;;6.65;2.55;;;;;;;17.57;52.77;96733.88;10400922;28;20072;-31
2023/12/30 11:31:43;;;;;;;3.80;1.80;;;;;;;17.60;52.03;96739.81;10399233;28;20033;-30
2023/12/30 11:36:48;;;;;;;5.35;2.40;;;;;;;17.61;53.32;96735.56;10399350;28;20033;-30
2023/12/30 11:41:48;;;;;;;7.10;2.90;;;;;;;17.61;52.93;96725.44;10379588;28;20373;-30
2023/12/30 11:46:50;;;;;;;7.85;4.40;;;;;;;17.57;52.58;96717.00;10400504;28;20033;-30
2023/12/30 11:51:53;;;;;;;9.05;3.97;;;;;;;17.59;52.39;96717.84;10393204;28;20155;-30
2023/12/30 11:56:54;;;;;;;7.00;3.08;;;;;;;17.57;53.60;96693.38;10385278;28;20036;-30
2023/12/30 12:02:06;;;;;;;5.70;3.27;;;;;;;17.63;54.20;96700.97;10388062;28;20045;-29
2023/12/30 12:07:07;;;;;;;7.50;3.50;;;;;;;17.64;55.56;96692.53;10397172;28;20358;-29
2023/12/30 12:12:07;;;;;;;8.53;4.00;;;;;;;17.61;55.38;96705.19;10395093;28;20037;-29
2023/12/30 12:17:08;;;;;;;7.90;3.03;;;;;;;17.61;55.54;96690.00;10380384;28;20289;-29
2023/12/30 12:22:08;;;;;;;7.07;3.77;;;;;;;17.62;55.40;96681.56;10390966;28;20084;-30
2023/12/30 12:27:08;;;;;;;5.17;2.47;;;;;;;17.56;55.61;96659.63;10388224;28;20034;-30
2023/12/30 12:32:13;;;;;;;4.87;2.50;;;;;;;17.56;56.17;96652.03;10403013;28;20035;-30
2023/12/30 12:37:17;;;;;;;6.28;2.92;;;;;;;17.66;54.47;96652.91;10380595;28;20091;-29
2023/12/30 12:42:17;;;;;;;6.32;2.83;;;;;;;17.69;55.62;96652.91;10390510;28;20033;-30
2023/12/30 12:47:18;;;;;;;4.13;2.10;;;;;;;17.75;54.48;96647.84;10393758;28;20393;-30
2023/12/30 12:52:18;;;;;;;3.70;2.10;;;;;;;17.75;56.31;96642.78;10388852;28;20107;-25
2023/12/30 12:57:18;;;;;;;4.17;2.10;;;;;;;17.71;55.10;96634.34;10398218;28;20037;-31
2023/12/30 13:02:19;;;;;;;6.17;3.60;;;;;;;17.78;54.73;96632.66;10376321;28;20096;-31
2023/12/30 13:07:20;;;;;;;6.25;1.98;;;;;;;17.79;54.90;96631.81;10376919;28;20037;-30
2023/12/30 13:12:20;;;;;;;4.15;1.83;;;;;;;17.80;55.13;96620.81;10395930;28;20037;-30
2023/12/30 13:17:21;;;;;;;4.18;2.10;;;;;;;17.75;54.92;96614.94;10396474;28;20045;-30
2023/12/30 13:22:22;;;;;;;4.10;2.13;;;;;;;17.81;55.95;96612.38;10380568;28;20044;-32
2023/12/30 13:27:23;;;;;;;4.28;2.10;;;;;;;17.83;55.63;96620.84;10392007;28;20132;-30
2023/12/30 13:32:27;;;;;;;3.97;1.80;;;;;;;17.68;53.82;96606.47;10390663;28;20029;-29
2023/12/30 13:37:28;;;;;;;4.43;1.70;;;;;;;17.59;52.12;96611.50;10390493;28;20049;-29
2023/12/30 13:42:28;;;;;;;3.03;1.23;;;;;;;17.49;50.90;96603.94;10394503;28;20033;-29
2023/12/30 13:47:51;;;;;;;5.03;1.40;;;;;;;17.53;52.15;96600.53;10402347;28;20129;-29
2023/12/30 13:52:53;;;;;;;3.05;1.45;;;;;;;17.63;53.33;96603.09;10389101;28;20483;-30
2023/12/30 13:57:54;;;;;;;6.03;2.00;;;;;;;17.67;52.87;96594.66;10388412;28;20028;-30
2023/12/30 14:02:55;;;;;;;6.60;1.73;;;;;;;17.72;54.65;96587.91;10400515;28;20045;-29
2023/12/30 14:08:07;;;;;;;4.38;1.50;;;;;;;17.76;53.22;96588.75;10403637;28;20296;-29
2023/12/30 14:13:07;;;;;;;5.88;2.05;;;;;;;17.81;53.15;96584.53;10394725;28;20052;-29
2023/12/30 14:18:08;;;;;;;2.17;1.13;;;;;;;17.83;52.93;96585.41;10384357;28;20025;-30
2023/12/30 14:23:11;;;;;;;3.87;1.20;;;;;;;17.81;53.09;96582.00;10393331;28;20483;-31
2023/12/30 14:28:14;;;;;;;2.63;1.23;;;;;;;17.77;53.21;96571.06;10404617;28;20033;-31
2023/12/30 14:33:14;;;;;;;2.65;1.40;;;;;;;17.84;53.07;96582.84;10405321;28;20041;-30
2023/12/30 14:38:15;;;;;;;4.70;1.40;;;;;;;17.85;54.28;96583.69;10399496;28;20051;-29
2023/12/30 14:43:16;;;;;;;4.60;1.75;;;;;;;17.85;56.25;96588.75;10392408;28;20460;-30
2023/12/30 14:48:16;;;;;;;4.95;1.63;;;;;;;17.84;55.96;96582.03;10400397;28;20025;-29
2023/12/30 14:53:17;;;;;;;3.50;1.30;;;;;;;17.83;56.00;96585.41;10398312;28;20048;-30
2023/12/30 14:58:17;;;;;;;2.87;1.33;;;;;;;17.81;56.94;96571.88;10395388;28;20682;-30
2023/12/30 15:03:17;;;;;;;2.97;1.40;;;;;;;17.80;56.76;96580.31;10398006;28;20033;-30
2023/12/30 15:08:18;;;;;;;1.80;1.20;;;;;;;17.73;56.79;96560.94;10391495;28;20284;-29
2023/12/30 15:13:18;;;;;;;1.30;0.82;;;;;;;17.81;54.31;96574.41;10404006;28;20276;-32
2023/12/30 15:18:19;;;;;;;5.23;1.60;;;;;;;17.80;57.11;96581.16;10392845;28;20043;-29
2023/12/30 15:23:19;;;;;;;2.60;1.70;;;;;;;17.78;56.94;96569.34;10394306;28;20029;-30
2023/12/30 15:28:20;;;;;;;1.77;1.10;;;;;;;17.80;57.24;96570.19;10398712;28;20120;-29
2023/12/30 15:33:20;;;;;;;4.30;1.83;;;;;;;17.75;57.46;96551.63;10392028;28;20276;-30
2023/12/30 15:38:20;;;;;;;2.57;1.60;;;;;;;17.79;57.29;96556.69;10395270;28;20045;-29
2023/12/30 15:43:21;;;;;;;2.57;1.00;;;;;;;17.82;56.73;96559.22;10381021;28;20292;-29
2023/12/30 15:48:21;;;;;;;2.53;1.15;;;;;;;17.82;56.87;96556.69;10390979;28;20122;-31
2023/12/30 15:53:22;;;;;;;5.73;1.63;;;;;;;17.79;57.08;96549.09;10381389;28;20036;-31
2023/12/30 15:58:22;;;;;;;3.63;1.17;;;;;;;17.82;56.47;96560.94;10394733;28;20468;-30
2023/12/30 16:03:23;;;;;;;2.83;1.17;;;;;;;17.80;56.50;96555.84;10387817;28;20069;-30
2023/12/30 16:08:23;;;;;;;3.23;1.30;;;;;;;17.82;56.66;96563.47;10393204;28;20291;-31
2023/12/30 16:13:24;;;;;;;4.82;1.95;;;;;;;17.80;56.03;96549.94;10390184;28;20029;-29
2023/12/30 16:18:24;;;;;;;4.32;1.42;;;;;;;17.85;55.45;96558.38;10393426;28;20033;-30
2023/12/30 16:23:25;;;;;;;1.33;1.00;;;;;;;17.84;55.99;96554.16;10398638;28;20037;-29
2023/12/30 16:28:25;;;;;;;4.20;1.13;;;;;;;17.88;56.40;96546.56;10402664;28;20522;-30
2023/12/30 16:33:25;;;;;;;3.37;1.30;;;;;;;17.88;56.12;96548.25;10389112;28;20048;-29
2023/12/30 16:38:26;;;;;;;2.30;1.10;;;;;;;17.89;57.06;96549.91;10397682;28;20099;-29
2023/12/30 16:43:26;;;;;;;3.30;1.70;;;;;;;17.91;57.17;96540.66;10394257;28;20037;-29
2023/12/30 16:48:27;;;;;;;1.73;0.93;;;;;;;17.91;56.79;96538.13;10400835;28;20094;-30
2023/12/30 16:53:27;;;;;;;2.90;1.92;;;;;;;17.94;56.98;96535.56;10397172;28;20037;-30
2023/12/30 16:58:30;;;;;;;5.93;1.43;;;;;;;17.98;56.67;96534.75;10404891;28;20034;-30
2023/12/30 17:03:30;;;;;;;5.15;1.50;;;;;;;18.00;57.12;96531.34;10393314;28;20034;-30
2023/12/30 17:08:31;;;;;;;4.63;1.57;;;;;;;17.99;57.26;96524.59;10397903;28;20033;-29
2023/12/30 17:13:31;;;;;;;5.13;1.60;;;;;;;17.98;57.51;96514.47;10405825;28;20298;-30
2023/12/30 17:18:32;;;;;;;4.95;1.77;;;;;;;17.97;57.81;96517.84;10406154;28;20045;-29
2023/12/30 17:23:32;;;;;;;4.80;1.40;;;;;;;17.95;56.93;96504.34;10403783;28;20033;-29
2023/12/30 17:28:33;;;;;;;8.70;2.17;;;;;;;18.00;58.30;96513.59;10398440;28;20284;-30
2023/12/30 17:33:34;;;;;;;7.18;1.95;;;;;;;17.99;58.61;96511.94;10404137;28;20033;-30
2023/12/30 17:38:34;;;;;;;8.00;2.33;;;;;;;18.01;58.68;96511.94;10390713;28;20103;-29
2023/12/30 17:43:36;;;;;;;7.73;2.53;;;;;;;18.01;58.64;96504.34;10406178;28;20037;-29
2023/12/30 17:48:37;;;;;;;6.82;2.60;;;;;;;18.01;58.64;96504.34;10395749;28;20495;-30
2023/12/30 17:53:37;;;;;;;6.83;3.27;;;;;;;18.01;58.33;96499.28;10396578;28;20143;-30
2023/12/30 17:58:37;;;;;;;5.43;2.30;;;;;;;18.00;58.23;96492.53;10404457;28;20723;-29
2023/12/30 18:03:38;;;;;;;5.63;1.70;;;;;;;18.03;58.34;96497.56;10402115;28;20043;-30
2023/12/30 18:08:38;;;;;;;4.97;2.10;;;;;;;18.02;57.64;96488.28;10403862;28;20041;-28
2023/12/30 18:13:39;;;;;;;4.90;1.70;;;;;;;17.98;58.07;96476.50;10411815;28;20701;-29
2023/12/30 18:18:39;;;;;;;7.90;2.85;;;;;;;18.04;57.56;96484.06;10402393;28;20338;-30
2023/12/30 18:23:39;;;;;;;3.37;1.87;;;;;;;18.08;57.37;96483.22;10396516;28;20040;-30
2023/12/30 18:28:40;;;;;;;8.53;2.37;;;;;;;18.07;57.18;96479.00;10396665;28;20095;-30
2023/12/30 18:33:40;;;;;;;9.60;3.67;;;;;;;17.98;58.61;96468.88;10407690;28;20037;-29
2023/12/30 18:38:40;;;;;;;12.63;4.77;;;;;;;18.04;58.46;96481.53;10400581;28;20296;-31
2023/12/30 18:43:41;;;;;;;15.77;4.17;;;;;;;17.94;58.36;96464.66;10398771;28;20036;-30
2023/12/30 18:48:41;;;;;;;9.75;4.30;;;;;;;18.03;59.17;96473.09;10403320;28;20045;-29
2023/12/30 18:53:42;;;;;;;12.67;4.33;;;;;;;18.04;58.70;96468.84;10400294;28;20039;-28
2023/12/30 18:58:42;;;;;;;10.83;4.33;;;;;;;18.06;58.97;96462.94;10401962;28;20033;-30
2023/12/30 19:03:42;;;;;;;16.63;3.97;;;;;;;18.03;58.60;96451.97;10401028;28;20029;-30
2023/12/30 19:08:43;;;;;;;10.43;3.37;;;;;;;18.01;59.15;96448.59;10401646;28;20018;-29
2023/12/30 19:13:43;;;;;;;9.00;3.97;;;;;;;18.00;58.94;96452.81;10403013;28;20025;-30
2023/12/30 19:18:43;;;;;;;11.47;3.57;;;;;;;18.01;58.69;96433.41;10401506;28;20068;-30
2023/12/30 19:23:44;;;;;;;12.30;4.28;;;;;;;18.01;58.68;96420.75;10400417;28;20450;-30
2023/12/30 19:28:44;;;;;;;16.53;3.47;;;;;;;18.02;58.33;96423.28;10395819;28;20380;-30
2023/12/30 19:33:44;;;;;;;10.05;3.80;;;;;;;17.95;58.59;96403.03;10398051;28;20552;-30
2023/12/30 19:38:45;;;;;;;10.53;4.13;;;;;;;17.99;57.31;96404.72;10391797;28;20492;-29
2023/12/30 19:43:45;;;;;;;14.87;4.87;;;;;;;18.03;58.78;96422.44;10393240;28;20557;-30
2023/12/30 19:48:46;;;;;;;13.80;4.37;;;;;;;18.08;59.20;96419.88;10392017;28;20052;-29
2023/12/30 19:53:46;;;;;;;19.67;4.13;;;;;;;18.05;59.29;96415.66;10389623;28;20041;-29
2023/12/30 19:58:47;;;;;;;10.05;4.20;;;;;;;18.04;59.17;96418.19;10392142;28;20296;-29
2023/12/30 20:03:47;;;;;;;13.07;4.57;;;;;;;18.03;59.64;96406.38;10386743;28;20415;-30
2023/12/30 20:08:47;;;;;;;11.90;4.57;;;;;;;18.03;59.66;96412.31;10391677;28;20462;-30
2023/12/30 20:13:48;;;;;;;14.00;4.40;;;;;;;18.04;58.67;96403.00;10393000;28;20407;-29
2023/12/30 20:18:48;;;;;;;12.73;4.60;;;;;;;17.95;59.92;96392.91;10393388;28;20383;-30
2023/12/30 20:23:50;;;;;;;13.33;6.53;;;;;;;18.00;58.88;96401.34;10394636;28;20292;-30
2023/12/30 20:28:50;;;;;;;11.73;3.95;;;;;;;17.98;59.29;96392.91;10391743;28;20048;-30
2023/12/30 20:33:51;;;;;;;8.70;4.57;;;;;;;17.98;59.48;96388.66;10392726;28;20090;-30
2023/12/30 20:38:52;;;;;;;16.30;6.33;;;;;;;17.96;59.43;96385.31;10386439;28;20303;-29
2023/12/30 20:43:53;;;;;;;13.68;4.72;;;;;;;17.94;59.47;96381.94;10400096;28;20572;-30
2023/12/30 20:48:53;;;;;;;9.13;3.87;;;;;;;17.94;58.88;96376.88;10396562;28;20029;-30
2023/12/30 20:53:53;;;;;;;12.57;3.83;;;;;;;17.92;59.48;96362.53;10392362;28;20650;-31
2023/12/30 20:58:55;;;;;;;8.65;4.15;;;;;;;17.95;59.26;96363.34;10398903;28;20044;-30
2023/12/30 21:03:56;;;;;;;10.10;4.28;;;;;;;17.95;59.27;96365.03;10397845;28;20044;-29
2023/12/30 21:08:56;;;;;;;12.03;4.30;;;;;;;17.97;58.99;96365.88;10399737;28;20042;-30
2023/12/30 21:13:56;;;;;;;10.73;4.03;;;;;;;17.94;59.17;96346.47;10403357;28;20555;-29
2023/12/30 21:18:57;;;;;;;10.87;3.97;;;;;;;17.97;58.70;96335.47;10396165;28;20041;-30
2023/12/30 21:23:57;;;;;;;11.30;4.70;;;;;;;17.92;59.16;96319.47;10393184;28;20065;-30
2023/12/30 21:28:58;;;;;;;16.30;4.77;;;;;;;17.96;59.10;96316.91;10403084;28;20287;-30
2023/12/30 21:33:58;;;;;;;10.10;3.90;;;;;;;17.95;59.28;96312.72;10396745;28;20045;-30
2023/12/30 21:38:58;;;;;;;7.27;3.73;;;;;;;17.98;58.55;96322.00;10390420;28;20072;-29
2023/12/30 21:43:59;;;;;;;8.83;3.77;;;;;;;17.96;59.37;96318.59;10402907;28;20052;-29
2023/12/30 21:49:00;;;;;;;8.95;3.80;;;;;;;17.96;59.00;96321.13;10400874;28;20513;-30
2023/12/30 21:54:00;;;;;;;9.10;3.67;;;;;;;17.96;58.69;96316.06;10397687;28;20052;-30
2023/12/30 21:59:02;;;;;;;7.78;3.47;;;;;;;17.96;58.63;96299.19;10400909;28;20033;-29
2023/12/30 22:04:03;;;;;;;7.93;4.28;;;;;;;17.96;58.77;96289.06;10407765;28;20065;-29
2023/12/30 22:09:03;;;;;;;8.20;3.30;;;;;;;17.95;58.36;96286.53;10401905;28;20116;-29
2023/12/30 22:14:04;;;;;;;9.23;3.53;;;;;;;17.95;58.33;96291.59;10405760;28;20041;-31
2023/12/30 22:19:04;;;;;;;8.33;3.43;;;;;;;17.92;58.81;96282.31;10401307;28;20982;-29
2023/12/30 22:24:05;;;;;;;7.27;3.53;;;;;;;17.91;59.07;96285.69;10400479;28;20503;-30
2023/12/30 22:29:05;;;;;;;8.52;3.60;;;;;;;17.90;58.82;96283.19;10404890;28;20037;-30
2023/12/30 22:34:05;;;;;;;8.60;4.10;;;;;;;17.90;59.10;96273.06;10402260;28;20037;-29
2023/12/30 22:39:06;;;;;;;5.40;2.83;;;;;;;17.88;58.55;96274.72;10397739;28;20408;-30
2023/12/30 22:44:06;;;;;;;6.57;3.93;;;;;;;17.87;58.81;96268.84;10404978;28;20284;-31
2023/12/30 22:49:06;;;;;;;9.40;4.17;;;;;;;17.86;58.66;96264.63;10398182;28;20034;-30
2023/12/30 22:54:08;;;;;;;8.67;3.90;;;;;;;17.86;58.85;96254.50;10399714;28;20292;-30
2023/12/30 22:59:09;;;;;;;8.20;3.97;;;;;;;17.83;58.70;96241.03;10404296;28;20045;-30
2023/12/30 23:04:10;;;;;;;9.35;4.13;;;;;;;17.86;59.03;96235.94;10397637;28;20037;-30
2023/12/30 23:09:10;;;;;;;8.65;3.10;;;;;;;17.86;58.80;96221.59;10404609;28;20037;-30
2023/12/30 23:14:11;;;;;;;8.23;3.80;;;;;;;17.84;59.40;96217.38;10404875;28;20043;-30
2023/12/30 23:19:15;;;;;;;6.35;3.83;;;;;;;17.85;59.15;96202.19;10398075;28;20047;-30